createdAt,value
2019-03-18T00:00:26.119Z,99653.22
2019-03-18T00:02:54.528Z,99665.91
2019-03-18T00:05:22.975Z,99659.70
2019-03-18T00:07:51.521Z,99654.02
2019-03-18T00:10:19.928Z,99660.22
2019-03-18T00:12:48.394Z,99661.47
2019-03-18T00:15:16.876Z,99664.25
2019-03-18T00:17:45.388Z,99658.02
2019-03-18T00:20:14.108Z,99658.02
2019-03-18T00:22:42.512Z,99661.43
2019-03-18T00:25:17.457Z,99660.46
2019-03-18T00:27:45.913Z,99663.36
2019-03-18T00:30:20.888Z,99657.91
2019-03-18T00:32:49.545Z,99659.36
2019-03-18T00:35:17.935Z,99662.59
2019-03-18T00:37:46.329Z,99645.70
2019-03-18T00:40:18.498Z,99656.20
2019-03-18T00:42:46.981Z,99658.09
2019-03-18T00:45:15.899Z,99657.13
2019-03-18T00:47:44.534Z,99663.55
2019-03-18T00:50:16.808Z,99662.05
2019-03-18T00:52:45.271Z,99661.89
2019-03-18T00:55:14.063Z,99653.20
2019-03-18T00:57:42.511Z,99667.56
2019-03-18T01:00:15.835Z,99679.20
2019-03-18T01:02:44.332Z,99670.91
2019-03-18T01:05:13.282Z,99667.80
2019-03-18T01:07:41.686Z,99667.16
2019-03-18T01:10:14.250Z,99669.38
2019-03-18T01:12:42.770Z,99668.48
2019-03-18T01:15:11.898Z,99662.57
2019-03-18T01:17:40.292Z,99668.05
2019-03-18T01:20:13.415Z,99659.57
2019-03-18T01:22:41.978Z,99659.98
2019-03-18T01:25:11.216Z,99662.05
2019-03-18T01:27:39.659Z,99664.05
2019-03-18T01:30:13.138Z,99662.05
2019-03-18T01:32:41.610Z,99667.50
2019-03-18T01:35:10.955Z,99663.84
2019-03-18T01:37:39.378Z,99661.91
2019-03-18T01:40:10.195Z,99669.98
2019-03-18T01:42:38.666Z,99670.56
2019-03-18T01:45:07.890Z,99672.45
2019-03-18T01:47:36.318Z,99675.44
2019-03-18T01:50:06.953Z,99623.42
2019-03-18T01:52:35.407Z,99674.33
2019-03-18T01:55:05.444Z,99680.32
2019-03-18T01:57:33.840Z,99682.41
2019-03-18T02:00:02.402Z,99685.16
2019-03-18T02:02:30.794Z,99680.06
2019-03-18T02:04:59.189Z,99677.20
2019-03-18T02:07:27.577Z,99681.77
2019-03-18T02:09:55.968Z,99684.31
2019-03-18T02:12:24.368Z,99628.44
2019-03-18T02:14:52.838Z,99683.39
2019-03-18T02:17:21.224Z,99685.74
2019-03-18T02:19:49.607Z,99685.74
2019-03-18T02:22:18.006Z,99681.94
2019-03-18T02:24:46.406Z,99682.63
2019-03-18T02:27:14.955Z,99685.77
2019-03-18T02:29:43.369Z,99677.20
2019-03-18T02:32:11.765Z,99681.77
2019-03-18T02:34:40.171Z,99686.17
2019-03-18T02:37:08.557Z,99681.28
2019-03-18T02:39:37.068Z,99683.21
2019-03-18T02:42:05.476Z,99683.97
2019-03-18T02:44:33.844Z,99689.81
2019-03-18T02:47:02.236Z,99692.91
2019-03-18T02:49:30.664Z,99693.42
2019-03-18T02:51:59.154Z,99682.84
2019-03-18T02:54:27.535Z,99692.12
2019-03-18T02:56:55.934Z,99694.19
2019-03-18T02:59:24.317Z,99694.91
2019-03-18T03:01:52.978Z,99692.91
2019-03-18T03:04:21.387Z,99697.60
2019-03-18T03:06:49.898Z,99691.94
2019-03-18T03:09:18.283Z,99698.22
2019-03-18T03:11:46.702Z,99694.50
2019-03-18T03:14:15.078Z,99690.84
2019-03-18T03:16:43.554Z,99691.25
2019-03-18T03:19:11.928Z,99700.36
2019-03-18T03:21:40.314Z,99696.42
2019-03-18T03:24:08.704Z,99698.94
2019-03-18T03:26:37.118Z,99692.28
2019-03-18T03:29:05.503Z,99684.05
2019-03-18T03:31:33.931Z,99690.59
2019-03-18T03:34:02.364Z,99688.38
2019-03-18T03:36:30.728Z,99690.75
2019-03-18T03:38:59.105Z,99689.64
2019-03-18T03:41:27.557Z,99693.30
2019-03-18T03:43:56.019Z,99691.58
2019-03-18T03:46:24.393Z,99694.95
2019-03-18T03:48:52.793Z,99696.47
2019-03-18T03:51:21.215Z,99701.71
2019-03-18T03:53:49.619Z,99706.39
2019-03-18T03:56:18.360Z,99701.06
2019-03-18T03:58:47.088Z,99698.94
2019-03-18T04:01:15.700Z,99697.83
2019-03-18T04:03:44.101Z,99699.45
2019-03-18T04:06:12.499Z,99707.66
2019-03-18T04:08:40.903Z,99701.55
2019-03-18T04:11:09.465Z,99703.89
2019-03-18T04:13:37.865Z,99710.39
2019-03-18T04:16:06.248Z,99709.98
2019-03-18T04:18:34.641Z,99716.67
2019-03-18T04:21:03.048Z,99712.32
2019-03-18T04:23:31.434Z,99723.14
2019-03-18T04:28:34.966Z,99723.92
2019-03-18T04:31:03.370Z,99722.72
2019-03-18T04:33:31.764Z,99719.22
2019-03-18T04:36:00.160Z,99718.26
2019-03-18T04:38:28.551Z,99719.91
2019-03-18T04:40:56.990Z,99723.14
2019-03-18T04:43:25.356Z,99725.98
2019-03-18T04:45:53.748Z,99731.41
2019-03-18T04:48:22.142Z,99732.58
2019-03-18T04:50:50.607Z,99730.03
2019-03-18T04:53:19.000Z,99731.08
2019-03-18T04:55:47.423Z,99737.89
2019-03-18T04:58:15.810Z,99740.98
2019-03-18T05:00:44.318Z,99739.56
2019-03-18T05:03:12.699Z,99736.56
2019-03-18T05:05:41.102Z,99745.25
2019-03-18T05:08:09.490Z,99755.74
2019-03-18T05:10:37.907Z,99762.84
2019-03-18T05:13:06.386Z,99770.37
2019-03-18T05:15:34.796Z,99770.39
2019-03-18T05:18:03.184Z,99761.88
2019-03-18T05:20:31.605Z,99760.73
2019-03-18T05:23:00.054Z,99766.54
2019-03-18T05:25:28.463Z,99776.33
2019-03-18T05:27:56.852Z,99786.96
2019-03-18T05:30:25.277Z,99780.10
2019-03-18T05:32:53.651Z,99779.58
2019-03-18T05:35:22.041Z,99777.48
2019-03-18T05:37:50.460Z,99773.52
2019-03-18T05:40:18.841Z,99772.81
2019-03-18T05:42:47.260Z,99773.09
2019-03-18T05:45:15.705Z,99778.41
2019-03-18T05:47:44.118Z,99783.30
2019-03-18T05:50:12.564Z,99789.98
2019-03-18T05:52:40.974Z,99790.89
2019-03-18T05:55:10.127Z,99801.72
2019-03-18T05:57:38.531Z,99797.64
2019-03-18T06:00:12.003Z,99807.16
2019-03-18T06:02:40.505Z,99812.40
2019-03-18T06:05:10.515Z,99804.33
2019-03-18T06:07:38.915Z,99815.56
2019-03-18T06:10:11.627Z,99821.58
2019-03-18T06:12:40.039Z,99824.38
2019-03-18T06:15:12.280Z,99815.02
2019-03-18T06:17:51.555Z,99836.59
2019-03-18T06:20:11.741Z,99835.98
2019-03-18T06:22:40.142Z,99840.25
2019-03-18T06:25:09.275Z,99844.33
2019-03-18T06:27:37.762Z,99843.84
2019-03-18T06:30:17.419Z,99855.55
2019-03-18T06:32:45.842Z,99855.38
2019-03-18T06:35:14.255Z,99859.77
2019-03-18T06:37:42.633Z,99868.50
2019-03-18T06:40:12.674Z,99867.91
2019-03-18T06:42:41.142Z,99870.53
2019-03-18T06:45:10.993Z,99877.16
2019-03-18T06:47:39.397Z,99877.63
2019-03-18T06:50:09.730Z,99880.49
2019-03-18T06:52:38.113Z,99881.95
2019-03-18T06:55:07.176Z,99881.98
2019-03-18T06:57:35.568Z,99881.78
2019-03-18T07:00:07.047Z,99888.09
2019-03-18T07:02:35.538Z,99890.17
2019-03-18T07:05:04.712Z,99892.34
2019-03-18T07:07:33.097Z,99894.97
2019-03-18T07:10:01.511Z,99905.53
2019-03-18T07:12:29.917Z,99903.67
2019-03-18T07:14:58.331Z,99907.87
2019-03-18T07:17:26.748Z,99913.20
2019-03-18T07:19:55.161Z,99906.82
2019-03-18T07:22:23.578Z,99904.63
2019-03-18T07:24:52.015Z,99903.69
2019-03-18T07:27:20.439Z,99907.95
2019-03-18T07:29:48.840Z,99915.14
2019-03-18T07:32:17.259Z,99918.81
2019-03-18T07:34:45.646Z,99919.25
2019-03-18T07:37:14.100Z,99918.66
2019-03-18T07:39:42.492Z,99913.19
2019-03-18T07:42:10.898Z,99924.67
2019-03-18T07:44:39.304Z,99927.98
2019-03-18T07:47:07.793Z,99918.42
2019-03-18T07:49:36.293Z,99906.91
2019-03-18T07:52:04.839Z,99915.97
2019-03-18T07:54:33.394Z,99915.23
2019-03-18T07:57:01.842Z,99916.80
2019-03-18T07:59:30.219Z,99925.34
2019-03-18T08:01:58.660Z,99932.61
2019-03-18T08:04:36.651Z,99940.69
2019-03-18T08:06:57.251Z,99942.41
2019-03-18T08:09:25.671Z,99972.23
2019-03-18T08:11:54.060Z,99964.72
2019-03-18T08:14:22.512Z,99957.19
2019-03-18T08:16:50.900Z,99969.90
2019-03-18T08:19:19.312Z,99977.28
2019-03-18T08:21:47.689Z,99973.59
2019-03-18T08:24:16.124Z,99979.66
2019-03-18T08:26:44.518Z,99980.02
2019-03-18T08:29:12.917Z,99991.00
2019-03-18T08:31:41.340Z,99991.19
2019-03-18T08:34:09.795Z,99987.96
2019-03-18T08:36:38.191Z,99990.48
2019-03-18T08:39:07.365Z,99968.05
2019-03-18T08:41:35.758Z,99991.20
2019-03-18T08:44:04.322Z,99998.99
2019-03-18T08:46:32.714Z,99992.97
2019-03-18T08:49:01.129Z,100005.24
2019-03-18T08:51:29.521Z,100008.97
2019-03-18T08:53:57.989Z,100011.45
2019-03-18T08:56:26.388Z,100003.45
2019-03-18T08:58:54.792Z,100009.50
2019-03-18T09:01:23.260Z,100020.20
2019-03-18T09:03:51.682Z,100021.75
2019-03-18T09:06:20.084Z,100007.25
2019-03-18T09:08:48.553Z,100007.25
2019-03-18T09:11:17.129Z,100012.43
2019-03-18T09:13:45.547Z,100011.46
2019-03-18T09:16:13.966Z,100019.33
2019-03-18T09:18:42.353Z,100016.98
2019-03-18T09:21:10.757Z,100009.87
2019-03-18T09:23:39.160Z,100007.59
2019-03-18T09:26:07.623Z,100015.30
2019-03-18T09:28:36.082Z,100011.26
2019-03-18T09:31:04.588Z,100012.78
2019-03-18T09:33:33.033Z,100013.77
2019-03-18T09:36:01.490Z,100016.16
2019-03-18T09:38:29.900Z,100014.70
2019-03-18T09:40:58.378Z,100010.16
2019-03-18T09:43:26.806Z,100014.03
2019-03-18T09:45:55.221Z,100005.91
2019-03-18T09:48:23.616Z,100009.02
2019-03-18T09:50:52.042Z,99992.27
2019-03-18T09:53:20.463Z,100016.64
2019-03-18T09:55:48.896Z,100007.73
2019-03-18T09:58:17.303Z,100015.42
2019-03-18T10:00:45.782Z,100010.81
2019-03-18T10:03:14.173Z,100020.61
2019-03-18T10:05:43.914Z,100021.68
2019-03-18T10:08:12.467Z,100023.78
2019-03-18T10:10:40.930Z,100030.95
2019-03-18T10:13:09.336Z,100029.02
2019-03-18T10:15:37.727Z,100021.19
2019-03-18T10:18:06.146Z,100013.20
2019-03-18T10:20:34.545Z,100021.18
2019-03-18T10:23:03.227Z,100026.48
2019-03-18T10:25:31.732Z,100029.66
2019-03-18T10:28:00.134Z,100023.11
2019-03-18T10:30:28.572Z,100038.61
2019-03-18T10:32:56.942Z,100031.70
2019-03-18T10:35:25.353Z,100028.38
2019-03-18T10:37:53.778Z,100031.07
2019-03-18T10:40:22.190Z,100033.17
2019-03-18T10:42:50.624Z,99951.02
2019-03-18T10:45:19.027Z,100032.61
2019-03-18T10:47:47.447Z,100044.36
2019-03-18T10:50:17.012Z,100025.70
2019-03-18T10:52:45.722Z,100043.23
2019-03-18T10:55:14.282Z,100037.61
2019-03-18T10:57:42.665Z,100045.55
2019-03-18T11:00:15.785Z,100045.55
2019-03-18T11:02:45.208Z,100035.58
2019-03-18T11:05:14.470Z,100035.58
2019-03-18T11:07:42.978Z,100049.16
2019-03-18T11:10:17.590Z,100052.29
2019-03-18T11:12:46.047Z,100059.73
2019-03-18T11:15:20.564Z,100046.20
2019-03-18T11:17:49.002Z,100059.23
2019-03-18T11:20:17.860Z,100061.70
2019-03-18T11:22:46.232Z,100061.06
2019-03-18T11:25:15.464Z,100068.64
2019-03-18T11:27:43.857Z,100067.13
2019-03-18T11:30:19.329Z,100067.27
2019-03-18T11:32:47.737Z,100061.67
2019-03-18T11:35:16.113Z,100061.67
2019-03-18T11:37:44.499Z,100065.97
2019-03-18T11:40:15.406Z,100061.53
2019-03-18T11:42:43.864Z,100084.52
2019-03-18T11:45:13.925Z,100089.13
2019-03-18T11:47:42.405Z,100089.13
2019-03-18T11:50:13.054Z,100084.67
2019-03-18T11:52:41.625Z,100084.67
2019-03-18T11:55:12.979Z,100090.12
2019-03-18T11:57:41.376Z,100089.80
2019-03-18T12:00:26.453Z,100084.52
2019-03-18T12:02:55.401Z,100081.45
2019-03-18T12:05:27.831Z,100081.45
2019-03-18T12:07:56.488Z,100069.37
2019-03-18T12:10:25.897Z,100067.69
2019-03-18T12:12:54.606Z,100054.27
2019-03-18T12:15:25.358Z,100054.75
2019-03-18T12:17:53.983Z,100048.38
2019-03-18T12:20:25.477Z,100045.08
2019-03-18T12:22:52.984Z,100039.64
2019-03-18T12:25:21.549Z,100031.20
2019-03-18T12:27:50.046Z,100020.92
2019-03-18T12:30:23.734Z,100019.94
2019-03-18T12:32:52.275Z,100019.17
2019-03-18T12:35:20.743Z,100014.31
2019-03-18T12:37:49.254Z,100006.31
2019-03-18T12:40:18.288Z,100007.50
2019-03-18T12:42:46.779Z,100000.48
2019-03-18T12:45:16.163Z,99995.31
2019-03-18T12:47:44.546Z,99998.77
2019-03-18T12:50:17.961Z,100004.10
2019-03-18T12:52:46.396Z,100001.17
2019-03-18T12:55:15.040Z,99991.54
2019-03-18T12:57:43.721Z,99993.60
2019-03-18T13:00:18.293Z,99991.15
2019-03-18T13:02:46.883Z,99998.79
2019-03-18T13:05:15.410Z,100000.94
2019-03-18T13:07:43.972Z,100001.12
2019-03-18T13:10:15.416Z,99996.72
2019-03-18T13:12:43.948Z,99999.33
2019-03-18T13:15:15.228Z,100000.86
2019-03-18T13:17:44.241Z,99999.83
2019-03-18T13:20:14.501Z,100001.97
2019-03-18T13:22:43.016Z,100012.73
2019-03-18T13:25:12.550Z,100006.94
2019-03-18T13:27:41.521Z,100017.91
2019-03-18T13:30:15.624Z,100018.51
2019-03-18T13:32:44.169Z,100018.92
2019-03-18T13:35:12.753Z,100015.27
2019-03-18T13:37:41.564Z,100024.45
2019-03-18T13:40:14.999Z,100025.36
2019-03-18T13:42:43.432Z,100010.55
2019-03-18T13:45:14.456Z,100005.12
2019-03-18T13:47:43.075Z,100016.52
2019-03-18T13:50:16.512Z,100020.07
2019-03-18T13:52:45.071Z,100017.20
2019-03-18T13:55:13.754Z,100012.40
2019-03-18T13:57:42.235Z,100024.24
2019-03-18T14:00:17.356Z,100018.08
2019-03-18T14:02:46.009Z,100018.52
2019-03-18T14:05:14.513Z,100013.15
2019-03-18T14:07:42.907Z,100015.23
2019-03-18T14:10:19.702Z,100014.86
2019-03-18T14:12:48.260Z,100020.37
2019-03-18T14:15:21.938Z,100012.20
2019-03-18T14:17:50.531Z,100016.94
2019-03-18T14:20:20.772Z,100011.16
2019-03-18T14:22:49.247Z,100023.00
2019-03-18T14:25:17.657Z,100018.98
2019-03-18T14:27:46.107Z,100018.80
2019-03-18T14:30:17.182Z,100022.44
2019-03-18T14:32:45.582Z,100011.84
2019-03-18T14:35:14.750Z,100001.63
2019-03-18T14:37:43.175Z,100004.88
2019-03-18T14:40:13.786Z,100005.58
2019-03-18T14:42:42.306Z,100010.88
2019-03-18T14:45:13.601Z,100014.54
2019-03-18T14:47:42.034Z,99957.20
2019-03-18T14:50:12.035Z,100016.48
2019-03-18T14:52:40.453Z,100015.99
2019-03-18T14:55:11.559Z,100011.70
2019-03-18T14:57:39.984Z,100019.67
2019-03-18T15:00:11.448Z,100012.45
2019-03-18T15:02:39.853Z,100017.00
2019-03-18T15:05:11.222Z,100015.33
2019-03-18T15:07:39.639Z,100014.47
2019-03-18T15:10:16.296Z,100016.02
2019-03-18T15:12:44.722Z,100011.85
2019-03-18T15:15:15.067Z,100021.67
2019-03-18T15:17:43.571Z,100028.32
2019-03-18T15:20:14.068Z,100036.44
2019-03-18T15:22:42.649Z,100070.27
2019-03-18T15:25:16.720Z,100068.05
2019-03-18T15:27:45.218Z,100075.38
2019-03-18T15:30:16.314Z,100103.66
2019-03-18T15:32:44.896Z,100103.66
2019-03-18T15:35:14.041Z,100103.88
2019-03-18T15:37:42.543Z,100097.26
2019-03-18T15:40:16.152Z,100102.56
2019-03-18T15:42:44.610Z,100098.61
2019-03-18T15:45:22.380Z,100105.21
2019-03-18T15:47:51.017Z,100106.67
2019-03-18T15:50:21.429Z,100106.67
2019-03-18T15:52:49.858Z,100094.93
2019-03-18T15:55:18.387Z,100093.12
2019-03-18T15:57:46.801Z,100089.97
2019-03-18T16:00:20.163Z,100087.81
2019-03-18T16:02:48.631Z,100103.05
2019-03-18T16:05:17.113Z,100096.95
2019-03-18T16:07:45.674Z,100104.98
2019-03-18T16:10:17.808Z,100104.98
2019-03-18T16:12:46.205Z,100109.81
2019-03-18T16:15:15.862Z,100059.62
2019-03-18T16:17:44.326Z,100109.61
2019-03-18T16:20:15.125Z,100115.39
2019-03-18T16:22:43.658Z,100132.73
2019-03-18T16:25:12.541Z,100132.73
2019-03-18T16:27:41.049Z,100133.08
2019-03-18T16:30:14.603Z,100142.32
2019-03-18T16:32:43.226Z,100147.90
2019-03-18T16:35:16.182Z,100159.73
2019-03-18T16:37:45.004Z,100159.73
2019-03-18T16:40:21.207Z,100159.03
2019-03-18T16:42:49.740Z,100163.62
2019-03-18T16:45:21.326Z,100169.98
2019-03-18T16:47:49.966Z,100178.42
2019-03-18T16:50:28.414Z,100178.42
2019-03-18T16:52:56.830Z,100169.80
2019-03-18T16:55:25.354Z,100175.88
2019-03-18T16:57:53.828Z,100180.42
2019-03-18T17:00:23.743Z,100186.00
2019-03-18T17:02:52.203Z,100192.89
2019-03-18T17:05:20.691Z,100201.30
2019-03-18T17:07:49.174Z,100203.03
2019-03-18T17:10:17.682Z,100210.27
2019-03-18T17:12:46.144Z,100198.98
2019-03-18T17:15:15.905Z,100204.12
2019-03-18T17:17:44.324Z,100210.41
2019-03-18T17:20:16.201Z,100206.06
2019-03-18T17:22:49.495Z,100208.27
2019-03-18T17:25:24.235Z,100211.54
2019-03-18T17:27:52.639Z,100215.84
2019-03-18T17:30:21.424Z,100221.69
2019-03-18T17:32:49.822Z,100218.55
2019-03-18T17:35:18.221Z,100207.63
2019-03-18T17:37:47.010Z,100215.98
2019-03-18T17:40:19.076Z,100211.92
2019-03-18T17:42:47.551Z,100217.05
2019-03-18T17:45:16.765Z,100228.05
2019-03-18T17:47:45.495Z,100228.77
2019-03-18T17:50:16.126Z,100227.62
2019-03-18T17:52:44.637Z,100230.86
2019-03-18T17:55:13.166Z,100238.41
2019-03-18T17:57:41.582Z,100246.58
2019-03-18T18:00:18.834Z,100250.49
2019-03-18T18:02:47.239Z,100249.09
2019-03-18T18:05:15.708Z,100249.09
2019-03-18T18:07:44.300Z,100252.50
2019-03-18T18:10:13.014Z,100255.62
2019-03-18T18:12:41.402Z,100262.80
2019-03-18T18:15:10.993Z,100259.13
2019-03-18T18:17:39.536Z,100261.67
2019-03-18T18:20:10.399Z,100275.02
2019-03-18T18:22:41.046Z,100277.95
2019-03-18T18:25:10.538Z,100278.52
2019-03-18T18:27:38.944Z,100283.70
2019-03-18T18:30:13.213Z,100288.84
2019-03-18T18:32:41.768Z,100295.65
2019-03-18T18:35:11.512Z,100308.86
2019-03-18T18:37:39.943Z,100304.09
2019-03-18T18:40:20.475Z,100317.66
2019-03-18T18:42:49.011Z,100314.73
2019-03-18T18:45:17.544Z,100277.52
2019-03-18T18:47:46.001Z,100331.21
2019-03-18T18:50:14.547Z,100331.61
2019-03-18T18:52:43.011Z,100332.66
2019-03-18T18:55:12.601Z,100333.41
2019-03-18T18:57:41.061Z,100337.53
2019-03-18T19:00:20.075Z,100342.74
2019-03-18T19:02:48.697Z,100340.95
2019-03-18T19:05:17.877Z,100345.02
2019-03-18T19:07:46.440Z,100343.11
2019-03-18T19:10:16.415Z,100343.38
2019-03-18T19:12:44.900Z,100350.02
2019-03-18T19:15:18.717Z,100343.80
2019-03-18T19:17:47.280Z,100317.05
2019-03-18T19:20:15.942Z,100291.94
2019-03-18T19:22:44.526Z,100356.50
2019-03-18T19:25:14.600Z,100365.34
2019-03-18T19:27:43.068Z,100358.36
2019-03-18T19:30:17.337Z,100374.11
2019-03-18T19:32:45.742Z,100375.73
2019-03-18T19:35:14.316Z,100383.75
2019-03-18T19:37:42.785Z,100385.94
2019-03-18T19:40:13.636Z,100397.41
2019-03-18T19:42:42.043Z,100387.75
2019-03-18T19:45:15.100Z,100391.19
2019-03-18T19:47:43.511Z,100389.32
2019-03-18T19:50:23.908Z,100398.56
2019-03-18T19:52:52.413Z,100395.83
2019-03-18T19:55:20.941Z,100390.40
2019-03-18T19:57:49.417Z,100404.17
2019-03-18T20:00:20.576Z,100408.70
2019-03-18T20:02:49.094Z,100407.56
2019-03-18T20:05:18.911Z,100409.23
2019-03-18T20:07:47.539Z,100408.28
2019-03-18T20:10:17.198Z,100416.27
2019-03-18T20:12:45.788Z,100424.73
2019-03-18T20:15:15.734Z,100438.04
2019-03-18T20:17:44.167Z,100428.66
2019-03-18T20:20:15.158Z,100440.66
2019-03-18T20:22:43.659Z,100434.27
2019-03-18T20:25:13.527Z,100443.67
2019-03-18T20:27:42.144Z,100439.63
2019-03-18T20:30:19.756Z,100438.47
2019-03-18T20:32:48.291Z,100446.73
2019-03-18T20:35:18.287Z,100448.27
2019-03-18T20:37:46.705Z,100453.55
2019-03-18T20:40:16.063Z,100459.14
2019-03-18T20:42:44.595Z,100456.28
2019-03-18T20:45:17.814Z,100446.80
2019-03-18T20:47:46.213Z,100457.63
2019-03-18T20:50:22.735Z,100465.00
2019-03-18T20:52:51.151Z,100464.28
2019-03-18T20:55:19.719Z,100463.45
2019-03-18T20:57:48.181Z,100472.88
2019-03-18T21:03:40.402Z,100478.80
2019-03-18T21:06:08.858Z,100481.18
2019-03-18T21:08:37.316Z,100473.80
2019-03-18T21:11:05.759Z,100478.93
2019-03-18T21:13:34.185Z,100479.86
2019-03-18T21:16:02.638Z,100483.10
2019-03-18T21:18:31.036Z,100488.59
2019-03-18T21:20:59.514Z,100487.40
2019-03-18T21:23:27.915Z,100483.45
2019-03-18T21:25:56.369Z,100489.52
2019-03-18T21:28:24.818Z,100344.20
2019-03-18T21:30:53.264Z,100489.53
2019-03-18T21:33:21.700Z,100487.61
2019-03-18T21:35:52.741Z,100485.95
2019-03-18T21:38:20.375Z,100484.97
2019-03-18T21:40:48.827Z,100486.73
2019-03-18T21:43:17.223Z,100491.45
2019-03-18T21:45:45.636Z,100496.47
2019-03-18T21:48:14.093Z,100491.59
2019-03-18T21:50:42.511Z,100493.27
2019-03-18T21:53:10.964Z,100494.10
2019-03-18T21:55:39.377Z,100492.80
2019-03-18T21:58:07.822Z,100488.06
2019-03-18T22:00:36.227Z,100498.05
2019-03-18T22:03:05.269Z,100500.91
2019-03-18T22:05:33.777Z,100501.64
2019-03-18T22:08:02.172Z,100499.86
2019-03-18T22:10:30.604Z,100498.91
2019-03-18T22:12:59.001Z,100504.50
2019-03-18T22:15:27.438Z,100501.18
2019-03-18T22:17:55.837Z,100508.08
2019-03-18T22:20:24.237Z,100514.51
2019-03-18T22:22:52.727Z,100510.60
2019-03-18T22:25:21.310Z,100502.96
2019-03-18T22:27:49.720Z,100502.14
2019-03-18T22:30:20.859Z,100508.46
2019-03-18T22:32:50.400Z,100516.44
2019-03-18T22:35:18.823Z,100517.97
2019-03-18T22:37:47.247Z,100516.44
2019-03-18T22:40:16.866Z,100515.01
2019-03-18T22:42:45.441Z,100523.45
2019-03-18T22:45:15.202Z,100527.63
2019-03-18T22:47:43.804Z,100525.47
2019-03-18T22:50:13.491Z,100522.73
2019-03-18T22:52:41.899Z,100476.67
2019-03-18T22:55:11.541Z,100518.83
2019-03-18T22:57:40.114Z,100523.56
2019-03-18T23:00:26.061Z,100518.20
2019-03-18T23:02:54.819Z,100520.94
2019-03-18T23:05:23.554Z,100525.70
2019-03-18T23:07:51.971Z,100529.27
2019-03-18T23:10:20.380Z,100527.84
2019-03-18T23:12:48.761Z,100523.20
2019-03-18T23:15:17.243Z,100525.11
2019-03-18T23:17:45.642Z,100468.17
2019-03-18T23:20:14.269Z,100523.66
2019-03-18T23:22:42.672Z,100522.71
2019-03-18T23:25:11.421Z,100519.87
2019-03-18T23:27:39.813Z,100519.87
2019-03-18T23:30:11.073Z,100523.31
2019-03-18T23:32:39.536Z,100516.54
2019-03-18T23:35:08.682Z,100522.00
2019-03-18T23:37:37.176Z,100531.05
2019-03-18T23:40:08.326Z,100535.93
2019-03-18T23:42:36.725Z,100537.00
2019-03-18T23:45:06.389Z,100537.73
2019-03-18T23:47:35.112Z,100540.35
2019-03-18T23:50:04.693Z,100543.33
2019-03-18T23:52:33.170Z,100543.33
2019-03-18T23:55:01.656Z,100541.77
2019-03-18T23:57:30.059Z,100541.39
2019-03-18T23:59:58.520Z,100540.56
